sensor_id;sensor_type;location;lat;lon;timestamp;P1;durP1;ratioP1;P2;durP2;ratioP2
33826;SDS011;20128;45.582;5.298;2023-04-10T15:36:39;0.80;;;0.80;;
33826;SDS011;20128;45.582;5.298;2023-04-10T15:39:04;1.10;;;0.60;;
33826;SDS011;20128;45.582;5.298;2023-04-10T15:41:30;3.15;;;1.10;;
33826;SDS011;20128;45.582;5.298;2023-04-10T15:43:56;1.05;;;0.80;;
33826;SDS011;20128;45.582;5.298;2023-04-10T15:46:22;1.60;;;0.90;;
33826;SDS011;20128;45.582;5.298;2023-04-10T15:48:47;0.65;;;0.60;;
33826;SDS011;20128;45.582;5.298;2023-04-10T15:51:13;2.55;;;0.88;;
33826;SDS011;20128;45.582;5.298;2023-04-10T15:53:39;2.25;;;1.00;;
33826;SDS011;20128;45.582;5.298;2023-04-10T15:56:04;3.13;;;1.10;;
33826;SDS011;20128;45.582;5.298;2023-04-10T15:58:31;0.65;;;0.65;;
33826;SDS011;20128;45.582;5.298;2023-04-10T16:00:57;1.63;;;0.77;;
33826;SDS011;20128;45.582;5.298;2023-04-10T16:03:23;1.08;;;0.80;;
33826;SDS011;20128;45.582;5.298;2023-04-10T16:05:48;1.60;;;0.77;;
33826;SDS011;20128;45.582;5.298;2023-04-10T16:08:14;1.58;;;0.80;;
33826;SDS011;20128;45.582;5.298;2023-04-10T16:10:40;1.20;;;0.77;;
33826;SDS011;20128;45.582;5.298;2023-04-10T16:13:05;1.92;;;1.20;;
33826;SDS011;20128;45.582;5.298;2023-04-10T16:15:34;2.55;;;1.02;;
33826;SDS011;20128;45.582;5.298;2023-04-10T16:18:04;3.63;;;1.00;;
33826;SDS011;20128;45.582;5.298;2023-04-10T16:20:31;2.00;;;1.00;;
33826;SDS011;20128;45.582;5.298;2023-04-10T16:22:58;2.45;;;1.17;;
33826;SDS011;20128;45.582;5.298;2023-04-10T16:25:24;4.97;;;1.30;;
33826;SDS011;20128;45.582;5.298;2023-04-10T16:27:51;2.30;;;1.10;;
33826;SDS011;20128;45.582;5.298;2023-04-10T16:30:17;1.77;;;1.10;;
33826;SDS011;20128;45.582;5.298;2023-04-10T16:32:43;2.78;;;1.23;;
33826;SDS011;20128;45.582;5.298;2023-04-10T16:35:09;2.08;;;1.02;;
33826;SDS011;20128;45.582;5.298;2023-04-10T16:37:35;1.55;;;0.98;;
33826;SDS011;20128;45.582;5.298;2023-04-10T16:40:01;3.63;;;1.20;;
33826;SDS011;20128;45.582;5.298;2023-04-10T16:42:27;1.88;;;1.33;;
33826;SDS011;20128;45.582;5.298;2023-04-10T16:44:53;3.15;;;1.08;;
33826;SDS011;20128;45.582;5.298;2023-04-10T16:47:19;2.35;;;1.00;;
33826;SDS011;20128;45.582;5.298;2023-04-10T16:49:44;3.28;;;1.20;;
33826;SDS011;20128;45.582;5.298;2023-04-10T16:52:10;2.15;;;1.27;;
33826;SDS011;20128;45.582;5.298;2023-04-10T16:54:37;1.30;;;1.20;;
33826;SDS011;20128;45.582;5.298;2023-04-10T16:57:03;2.95;;;1.20;;
33826;SDS011;20128;45.582;5.298;2023-04-10T16:59:30;4.10;;;1.55;;
33826;SDS011;20128;45.582;5.298;2023-04-10T17:01:56;7.78;;;1.38;;
33826;SDS011;20128;45.582;5.298;2023-04-10T17:04:22;4.65;;;1.70;;
33826;SDS011;20128;45.582;5.298;2023-04-10T17:06:48;6.18;;;1.90;;
33826;SDS011;20128;45.582;5.298;2023-04-10T17:09:14;4.13;;;1.33;;
33826;SDS011;20128;45.582;5.298;2023-04-10T17:11:39;3.15;;;1.33;;
33826;SDS011;20128;45.582;5.298;2023-04-10T17:14:05;4.13;;;1.13;;
33826;SDS011;20128;45.582;5.298;2023-04-10T17:16:31;2.50;;;1.15;;
33826;SDS011;20128;45.582;5.298;2023-04-10T17:18:57;10.45;;;1.80;;
33826;SDS011;20128;45.582;5.298;2023-04-10T17:21:23;4.72;;;1.90;;
33826;SDS011;20128;45.582;5.298;2023-04-10T17:23:48;9.52;;;1.67;;
33826;SDS011;20128;45.582;5.298;2023-04-10T17:26:14;6.55;;;1.65;;
33826;SDS011;20128;45.582;5.298;2023-04-10T17:28:41;5.80;;;1.65;;
33826;SDS011;20128;45.582;5.298;2023-04-10T17:31:10;3.78;;;1.90;;
33826;SDS011;20128;45.582;5.298;2023-04-10T17:33:37;13.15;;;2.65;;
33826;SDS011;20128;45.582;5.298;2023-04-10T17:36:03;8.57;;;2.00;;
33826;SDS011;20128;45.582;5.298;2023-04-10T17:38:28;5.38;;;1.45;;
33826;SDS011;20128;45.582;5.298;2023-04-10T17:40:54;5.85;;;1.98;;
33826;SDS011;20128;45.582;5.298;2023-04-10T17:43:20;6.72;;;2.22;;
33826;SDS011;20128;45.582;5.298;2023-04-10T17:45:45;14.10;;;3.10;;
33826;SDS011;20128;45.582;5.298;2023-04-10T17:48:11;16.75;;;3.50;;
33826;SDS011;20128;45.582;5.298;2023-04-10T17:50:37;9.55;;;4.50;;
33826;SDS011;20128;45.582;5.298;2023-04-10T17:53:02;9.05;;;3.22;;
33826;SDS011;20128;45.582;5.298;2023-04-10T17:55:28;11.95;;;3.80;;
33826;SDS011;20128;45.582;5.298;2023-04-10T17:57:55;5.85;;;3.40;;
33826;SDS011;20128;45.582;5.298;2023-04-10T18:00:21;9.63;;;4.75;;
33826;SDS011;20128;45.582;5.298;2023-04-10T18:02:47;12.07;;;4.32;;
33826;SDS011;20128;45.582;5.298;2023-04-10T18:05:13;10.45;;;3.03;;
33826;SDS011;20128;45.582;5.298;2023-04-10T18:07:39;6.60;;;2.15;;
33826;SDS011;20128;45.582;5.298;2023-04-10T18:10:05;8.18;;;2.20;;
33826;SDS011;20128;45.582;5.298;2023-04-10T18:12:31;7.65;;;2.92;;
33826;SDS011;20128;45.582;5.298;2023-04-10T18:14:57;6.00;;;1.70;;
33826;SDS011;20128;45.582;5.298;2023-04-10T18:17:23;3.70;;;1.70;;
33826;SDS011;20128;45.582;5.298;2023-04-10T18:19:49;15.25;;;3.35;;
33826;SDS011;20128;45.582;5.298;2023-04-10T18:22:15;26.35;;;4.25;;
33826;SDS011;20128;45.582;5.298;2023-04-10T18:24:44;7.65;;;2.63;;
33826;SDS011;20128;45.582;5.298;2023-04-10T18:27:13;5.65;;;2.20;;
33826;SDS011;20128;45.582;5.298;2023-04-10T18:29:39;5.82;;;1.77;;
33826;SDS011;20128;45.582;5.298;2023-04-10T18:32:06;11.60;;;2.80;;
33826;SDS011;20128;45.582;5.298;2023-04-10T18:34:32;10.55;;;2.20;;
33826;SDS011;20128;45.582;5.298;2023-04-10T18:36:58;7.70;;;2.85;;
33826;SDS011;20128;45.582;5.298;2023-04-10T18:39:24;8.45;;;2.47;;
33826;SDS011;20128;45.582;5.298;2023-04-10T18:41:50;7.30;;;2.83;;
33826;SDS011;20128;45.582;5.298;2023-04-10T18:44:15;5.18;;;3.00;;
33826;SDS011;20128;45.582;5.298;2023-04-10T18:46:41;6.15;;;2.65;;
33826;SDS011;20128;45.582;5.298;2023-04-10T18:49:08;8.15;;;3.10;;
33826;SDS011;20128;45.582;5.298;2023-04-10T18:51:34;9.10;;;3.13;;
33826;SDS011;20128;45.582;5.298;2023-04-10T18:54:00;6.60;;;2.90;;
33826;SDS011;20128;45.582;5.298;2023-04-10T18:56:26;5.75;;;2.92;;
33826;SDS011;20128;45.582;5.298;2023-04-10T18:58:51;8.05;;;3.08;;
33826;SDS011;20128;45.582;5.298;2023-04-10T19:01:17;10.65;;;2.95;;
33826;SDS011;20128;45.582;5.298;2023-04-10T19:03:44;7.88;;;2.95;;
33826;SDS011;20128;45.582;5.298;2023-04-10T19:06:10;15.93;;;4.28;;
33826;SDS011;20128;45.582;5.298;2023-04-10T19:08:35;3.92;;;2.58;;
33826;SDS011;20128;45.582;5.298;2023-04-10T19:11:07;7.10;;;2.88;;
33826;SDS011;20128;45.582;5.298;2023-04-10T19:13:34;3.80;;;2.08;;
33826;SDS011;20128;45.582;5.298;2023-04-10T19:16:03;7.13;;;2.17;;
33826;SDS011;20128;45.582;5.298;2023-04-10T19:18:28;3.78;;;1.70;;
33826;SDS011;20128;45.582;5.298;2023-04-10T19:20:55;11.45;;;3.10;;
33826;SDS011;20128;45.582;5.298;2023-04-10T19:23:20;11.65;;;2.47;;
33826;SDS011;20128;45.582;5.298;2023-04-10T19:25:50;9.55;;;2.40;;
33826;SDS011;20128;45.582;5.298;2023-04-10T19:28:18;4.38;;;2.22;;
33826;SDS011;20128;45.582;5.298;2023-04-10T19:30:44;15.70;;;2.85;;
33826;SDS011;20128;45.582;5.298;2023-04-10T19:33:10;11.48;;;2.83;;
33826;SDS011;20128;45.582;5.298;2023-04-10T19:35:36;5.55;;;2.25;;
33826;SDS011;20128;45.582;5.298;2023-04-10T19:38:01;4.72;;;2.13;;
33826;SDS011;20128;45.582;5.298;2023-04-10T19:40:28;9.95;;;2.70;;
33826;SDS011;20128;45.582;5.298;2023-04-10T19:42:55;3.63;;;2.00;;
33826;SDS011;20128;45.582;5.298;2023-04-10T19:45:22;8.82;;;2.17;;
33826;SDS011;20128;45.582;5.298;2023-04-10T19:47:51;4.30;;;2.25;;
33826;SDS011;20128;45.582;5.298;2023-04-10T19:50:17;5.63;;;2.78;;
33826;SDS011;20128;45.582;5.298;2023-04-10T19:52:42;3.95;;;2.28;;
33826;SDS011;20128;45.582;5.298;2023-04-10T19:55:08;8.18;;;3.15;;
33826;SDS011;20128;45.582;5.298;2023-04-10T19:57:34;12.60;;;5.63;;
33826;SDS011;20128;45.582;5.298;2023-04-10T19:59:59;31.42;;;12.90;;
33826;SDS011;20128;45.582;5.298;2023-04-10T20:02:25;18.23;;;7.70;;
33826;SDS011;20128;45.582;5.298;2023-04-10T20:04:51;14.80;;;6.97;;
33826;SDS011;20128;45.582;5.298;2023-04-10T20:07:16;16.95;;;8.07;;
33826;SDS011;20128;45.582;5.298;2023-04-10T20:09:42;14.25;;;4.90;;
33826;SDS011;20128;45.582;5.298;2023-04-10T20:12:08;11.25;;;4.63;;
33826;SDS011;20128;45.582;5.298;2023-04-10T20:14:33;11.10;;;4.20;;
33826;SDS011;20128;45.582;5.298;2023-04-10T20:16:59;10.60;;;4.68;;
33826;SDS011;20128;45.582;5.298;2023-04-10T20:19:24;12.05;;;4.72;;
33826;SDS011;20128;45.582;5.298;2023-04-10T20:21:50;10.85;;;3.72;;
33826;SDS011;20128;45.582;5.298;2023-04-10T20:24:16;7.28;;;3.00;;
33826;SDS011;20128;45.582;5.298;2023-04-10T20:26:41;6.97;;;2.20;;
33826;SDS011;20128;45.582;5.298;2023-04-10T20:29:09;11.23;;;2.33;;
33826;SDS011;20128;45.582;5.298;2023-04-10T20:31:35;6.00;;;2.42;;
33826;SDS011;20128;45.582;5.298;2023-04-10T20:34:01;7.03;;;2.63;;
33826;SDS011;20128;45.582;5.298;2023-04-10T20:36:26;8.57;;;1.95;;
33826;SDS011;20128;45.582;5.298;2023-04-10T20:38:52;4.38;;;2.20;;
33826;SDS011;20128;45.582;5.298;2023-04-10T20:41:18;5.07;;;2.33;;
33826;SDS011;20128;45.582;5.298;2023-04-10T20:43:44;8.77;;;2.10;;
33826;SDS011;20128;45.582;5.298;2023-04-10T20:46:09;7.57;;;1.95;;
33826;SDS011;20128;45.582;5.298;2023-04-10T20:48:35;5.07;;;2.10;;
33826;SDS011;20128;45.582;5.298;2023-04-10T20:51:03;5.07;;;2.58;;
33826;SDS011;20128;45.582;5.298;2023-04-10T20:53:29;8.73;;;2.45;;
33826;SDS011;20128;45.582;5.298;2023-04-10T20:55:55;18.10;;;7.97;;
33826;SDS011;20128;45.582;5.298;2023-04-10T20:58:21;33.58;;;11.07;;
33826;SDS011;20128;45.582;5.298;2023-04-10T21:00:53;4.82;;;2.53;;
33826;SDS011;20128;45.582;5.298;2023-04-10T21:03:18;5.60;;;2.45;;
33826;SDS011;20128;45.582;5.298;2023-04-10T21:05:44;7.18;;;2.22;;
33826;SDS011;20128;45.582;5.298;2023-04-10T21:08:10;6.25;;;2.40;;
33826;SDS011;20128;45.582;5.298;2023-04-10T21:10:37;7.93;;;2.90;;
33826;SDS011;20128;45.582;5.298;2023-04-10T21:13:17;4.85;;;1.77;;
33826;SDS011;20128;45.582;5.298;2023-04-10T21:15:42;5.38;;;2.20;;
33826;SDS011;20128;45.582;5.298;2023-04-10T21:18:08;8.73;;;3.25;;
33826;SDS011;20128;45.582;5.298;2023-04-10T21:20:34;5.85;;;2.40;;
33826;SDS011;20128;45.582;5.298;2023-04-10T21:23:00;6.25;;;3.00;;
33826;SDS011;20128;45.582;5.298;2023-04-10T21:25:26;5.72;;;2.15;;
33826;SDS011;20128;45.582;5.298;2023-04-10T21:27:52;4.95;;;2.63;;
33826;SDS011;20128;45.582;5.298;2023-04-10T21:30:17;6.68;;;2.45;;
33826;SDS011;20128;45.582;5.298;2023-04-10T21:32:43;5.07;;;1.92;;
33826;SDS011;20128;45.582;5.298;2023-04-10T21:35:09;8.43;;;2.63;;
33826;SDS011;20128;45.582;5.298;2023-04-10T21:37:34;3.95;;;2.35;;
33826;SDS011;20128;45.582;5.298;2023-04-10T21:40:00;17.40;;;6.95;;
33826;SDS011;20128;45.582;5.298;2023-04-10T21:42:26;5.95;;;2.33;;
33826;SDS011;20128;45.582;5.298;2023-04-10T21:44:52;7.00;;;2.67;;
33826;SDS011;20128;45.582;5.298;2023-04-10T21:47:18;3.80;;;2.00;;
33826;SDS011;20128;45.582;5.298;2023-04-10T21:49:44;4.28;;;1.60;;
33826;SDS011;20128;45.582;5.298;2023-04-10T21:52:09;7.70;;;1.92;;
33826;SDS011;20128;45.582;5.298;2023-04-10T21:54:35;7.60;;;1.70;;
33826;SDS011;20128;45.582;5.298;2023-04-10T21:57:01;3.20;;;1.70;;
33826;SDS011;20128;45.582;5.298;2023-04-10T21:59:27;5.75;;;2.00;;
33826;SDS011;20128;45.582;5.298;2023-04-10T22:01:55;6.47;;;2.53;;
33826;SDS011;20128;45.582;5.298;2023-04-10T22:04:21;9.80;;;2.03;;
33826;SDS011;20128;45.582;5.298;2023-04-10T22:06:47;6.10;;;1.70;;
33826;SDS011;20128;45.582;5.298;2023-04-10T22:09:13;7.03;;;1.80;;
33826;SDS011;20128;45.582;5.298;2023-04-10T22:11:38;6.65;;;2.63;;
33826;SDS011;20128;45.582;5.298;2023-04-10T22:14:07;8.02;;;1.88;;
33826;SDS011;20128;45.582;5.298;2023-04-10T22:16:33;2.42;;;1.92;;
33826;SDS011;20128;45.582;5.298;2023-04-10T22:18:58;4.47;;;1.70;;
33826;SDS011;20128;45.582;5.298;2023-04-10T22:21:24;3.45;;;1.95;;
33826;SDS011;20128;45.582;5.298;2023-04-10T22:23:50;3.10;;;1.60;;
33826;SDS011;20128;45.582;5.298;2023-04-10T22:26:16;3.53;;;2.00;;
33826;SDS011;20128;45.582;5.298;2023-04-10T22:28:44;7.57;;;1.77;;
33826;SDS011;20128;45.582;5.298;2023-04-10T22:31:13;3.92;;;1.85;;
33826;SDS011;20128;45.582;5.298;2023-04-10T22:33:40;4.95;;;1.50;;
33826;SDS011;20128;45.582;5.298;2023-04-10T22:36:06;4.85;;;1.83;;
33826;SDS011;20128;45.582;5.298;2023-04-10T22:38:32;9.77;;;1.95;;
33826;SDS011;20128;45.582;5.298;2023-04-10T22:40:58;9.55;;;1.95;;
33826;SDS011;20128;45.582;5.298;2023-04-10T22:43:23;4.25;;;1.77;;
33826;SDS011;20128;45.582;5.298;2023-04-10T22:45:49;7.68;;;1.67;;
33826;SDS011;20128;45.582;5.298;2023-04-10T22:48:15;5.18;;;1.80;;
33826;SDS011;20128;45.582;5.298;2023-04-10T22:50:40;4.95;;;1.80;;
33826;SDS011;20128;45.582;5.298;2023-04-10T22:53:08;6.13;;;2.03;;
33826;SDS011;20128;45.582;5.298;2023-04-10T22:55:38;5.90;;;1.65;;
33826;SDS011;20128;45.582;5.298;2023-04-10T22:58:04;4.38;;;1.85;;
33826;SDS011;20128;45.582;5.298;2023-04-10T23:00:31;6.85;;;1.70;;
33826;SDS011;20128;45.582;5.298;2023-04-10T23:02:57;7.35;;;1.83;;
33826;SDS011;20128;45.582;5.298;2023-04-10T23:05:23;6.88;;;1.85;;
33826;SDS011;20128;45.582;5.298;2023-04-10T23:07:48;3.08;;;1.65;;
33826;SDS011;20128;45.582;5.298;2023-04-10T23:10:14;2.00;;;1.60;;
33826;SDS011;20128;45.582;5.298;2023-04-10T23:12:40;9.07;;;2.03;;
33826;SDS011;20128;45.582;5.298;2023-04-10T23:15:06;5.15;;;1.80;;
33826;SDS011;20128;45.582;5.298;2023-04-10T23:17:32;3.42;;;1.95;;
33826;SDS011;20128;45.582;5.298;2023-04-10T23:19:58;8.05;;;2.10;;
33826;SDS011;20128;45.582;5.298;2023-04-10T23:22:24;5.65;;;1.80;;
33826;SDS011;20128;45.582;5.298;2023-04-10T23:24:55;2.67;;;1.52;;
33826;SDS011;20128;45.582;5.298;2023-04-10T23:27:21;7.45;;;1.60;;
33826;SDS011;20128;45.582;5.298;2023-04-10T23:29:47;4.15;;;1.98;;
33826;SDS011;20128;45.582;5.298;2023-04-10T23:32:14;3.20;;;1.58;;
33826;SDS011;20128;45.582;5.298;2023-04-10T23:34:40;3.80;;;1.60;;
33826;SDS011;20128;45.582;5.298;2023-04-10T23:37:05;4.63;;;1.85;;
33826;SDS011;20128;45.582;5.298;2023-04-10T23:39:31;3.42;;;1.67;;
33826;SDS011;20128;45.582;5.298;2023-04-10T23:41:57;4.35;;;1.80;;
33826;SDS011;20128;45.582;5.298;2023-04-10T23:44:22;11.02;;;1.83;;
33826;SDS011;20128;45.582;5.298;2023-04-10T23:46:48;5.00;;;1.70;;
33826;SDS011;20128;45.582;5.298;2023-04-10T23:49:14;3.63;;;1.83;;
33826;SDS011;20128;45.582;5.298;2023-04-10T23:51:40;3.63;;;1.75;;
33826;SDS011;20128;45.582;5.298;2023-04-10T23:54:06;5.70;;;1.25;;
33826;SDS011;20128;45.582;5.298;2023-04-10T23:56:32;6.32;;;1.80;;
33826;SDS011;20128;45.582;5.298;2023-04-10T23:58:58;4.88;;;1.63;;
